Time;durP1;ratioP1;P1;durP2;ratioP2;P2;SDS_P1;SDS_P2;PMS_P1;PMS_P2;Temp;Humidity;BMP_temperature;BMP_pressure;BME280_temperature;BME280_humidity;BME280_pressure;Samples;Min_cycle;Max_cycle;Signal;HPM_P1;HPM_P2
2021/06/03 00:00:50;;;;;;;6.22;2.60;;;22.00;54.80;;;;;;4957647;29;20019;-76
2021/06/03 00:03:17;;;;;;;5.65;2.72;;;22.00;54.70;;;;;;4940461;29;20377;-75
2021/06/03 00:05:50;;;;;;;5.35;2.78;;;21.90;54.70;;;;;;4957539;29;20038;-76
2021/06/03 00:08:17;;;;;;;4.35;2.63;;;21.90;55.20;;;;;;4957355;29;20019;-75
2021/06/03 00:10:52;;;;;;;7.57;2.70;;;21.80;55.20;;;;;;4940044;29;20461;-76
2021/06/03 00:13:20;;;;;;;4.60;2.72;;;21.80;55.40;;;;;;4956905;29;20015;-77
2021/06/03 00:15:47;;;;;;;4.28;2.60;;;21.70;55.50;;;;;;4940062;29;20015;-77
2021/06/03 00:18:12;;;;;;;4.78;2.53;;;21.70;56.10;;;;;;4957613;29;20030;-77
2021/06/03 00:20:38;;;;;;;4.18;2.45;;;21.60;56.30;;;;;;4956459;29;20362;-76
2021/06/03 00:23:04;;;;;;;5.07;2.85;;;21.60;56.70;;;;;;4939973;29;20366;-76
2021/06/03 00:25:30;;;;;;;4.35;2.65;;;21.60;56.80;;;;;;4956568;29;20436;-77
2021/06/03 00:27:56;;;;;;;4.50;2.83;;;21.50;56.70;;;;;;4939868;29;20025;-77
2021/06/03 00:30:22;;;;;;;5.40;2.80;;;21.50;57.00;;;;;;4956250;29;20035;-77
2021/06/03 00:32:49;;;;;;;5.20;2.65;;;21.50;57.40;;;;;;4928741;29;20078;-76
2021/06/03 00:35:15;;;;;;;5.57;2.78;;;21.40;57.60;;;;;;4937936;29;20024;-77
2021/06/03 00:37:41;;;;;;;4.43;2.80;;;21.40;57.90;;;;;;4920039;29;20030;-76
2021/06/03 00:40:10;;;;;;;5.82;3.22;;;21.40;58.20;;;;;;4937785;29;20027;-77
2021/06/03 00:42:36;;;;;;;4.28;2.60;;;21.40;58.40;;;;;;4936999;29;20368;-76
2021/06/03 00:45:03;;;;;;;6.65;2.75;;;21.30;58.10;;;;;;4937745;29;20071;-76
2021/06/03 00:47:28;;;;;;;6.93;2.97;;;21.30;57.80;;;;;;4937277;29;20020;-76
2021/06/03 00:49:54;;;;;;;4.80;2.90;;;21.30;57.80;;;;;;4920393;29;20115;-76
2021/06/03 00:52:20;;;;;;;4.82;2.78;;;21.20;57.80;;;;;;4937505;29;20349;-76
2021/06/03 00:54:46;;;;;;;4.85;2.78;;;21.20;58.10;;;;;;4937216;29;20020;-76
2021/06/03 00:57:12;;;;;;;4.80;2.67;;;21.10;58.40;;;;;;4937137;29;20035;-76
2021/06/03 00:59:37;;;;;;;5.97;2.90;;;21.10;58.70;;;;;;4936764;29;20103;-76
2021/06/03 01:02:03;;;;;;;4.53;2.65;;;21.10;58.90;;;;;;4920346;29;20376;-76
2021/06/03 01:04:30;;;;;;;4.50;3.00;;;21.00;59.10;;;;;;4935975;29;20027;-75
2021/06/03 01:06:55;;;;;;;4.50;2.83;;;21.00;59.40;;;;;;4920120;29;20027;-76
2021/06/03 01:09:28;;;;;;;4.55;2.65;;;21.00;59.50;;;;;;4937011;29;20031;-77
2021/06/03 01:12:05;;;;;;;3.90;2.75;;;21.00;59.80;;;;;;4936878;29;20024;-76
2021/06/03 01:14:40;;;;;;;4.32;2.63;;;21.00;59.90;;;;;;4936484;29;20099;-76
2021/06/03 01:17:06;;;;;;;4.47;2.60;;;21.00;60.20;;;;;;4936919;29;20363;-77
2021/06/03 01:19:36;;;;;;;3.95;2.72;;;20.90;60.40;;;;;;4919377;29;20024;-77
2021/06/03 01:22:09;;;;;;;3.95;2.42;;;20.90;60.60;;;;;;4936954;29;20020;-76
2021/06/03 01:24:44;;;;;;;4.57;2.72;;;20.90;60.70;;;;;;4919421;29;20034;-75
2021/06/03 01:27:21;;;;;;;3.88;2.20;;;20.90;60.90;;;;;;4920097;29;20024;-76
2021/06/03 01:30:11;;;;;;;3.97;2.47;;;20.90;61.10;;;;;;4919402;29;20023;-76
2021/06/03 01:32:42;;;;;;;4.03;2.38;;;20.80;61.50;;;;;;4918934;29;20047;-77
2021/06/03 01:35:10;;;;;;;;;;;20.80;61.60;;;;;;4937127;29;20404;-76
2021/06/03 01:37:37;;;;;;;4.07;2.45;;;20.80;61.60;;;;;;4919102;29;19918;-77
2021/06/03 01:40:06;;;;;;;4.15;2.47;;;20.80;62.10;;;;;;4919259;29;20107;-76
2021/06/03 01:42:32;;;;;;;6.75;2.50;;;20.80;62.30;;;;;;4936036;29;20019;-77
2021/06/03 01:44:58;;;;;;;5.63;2.90;;;20.80;62.50;;;;;;4936437;29;20028;-76
2021/06/03 01:47:23;;;;;;;4.18;2.40;;;20.70;62.70;;;;;;4936536;29;20041;-76
2021/06/03 01:49:49;;;;;;;4.28;2.80;;;20.70;62.60;;;;;;4918712;29;20527;-76
2021/06/03 01:52:15;;;;;;;3.60;2.38;;;20.70;62.50;;;;;;4919291;29;20028;-76
2021/06/03 01:54:42;;;;;;;4.65;2.38;;;20.70;63.00;;;;;;4918697;29;20031;-76
2021/06/03 01:57:10;;;;;;;3.97;2.60;;;20.70;63.40;;;;;;4936280;29;20053;-77
2021/06/03 01:59:37;;;;;;;3.88;2.60;;;20.60;63.70;;;;;;4918710;29;20023;-76
2021/06/03 02:02:03;;;;;;;3.47;2.42;;;20.60;63.90;;;;;;4936268;29;20148;-75
2021/06/03 02:04:29;;;;;;;3.67;2.60;;;20.60;64.10;;;;;;4918535;29;20020;-76
2021/06/03 02:06:54;;;;;;;5.97;2.78;;;20.50;64.20;;;;;;4934858;29;20119;-77
2021/06/03 02:09:20;;;;;;;4.97;2.60;;;20.50;64.30;;;;;;4919128;29;20143;-76
2021/06/03 02:11:47;;;;;;;4.38;2.33;;;20.50;64.40;;;;;;4918217;29;20532;-75
2021/06/03 02:14:18;;;;;;;3.85;2.63;;;20.40;64.50;;;;;;4918934;29;20024;-76
2021/06/03 02:16:46;;;;;;;6.10;2.37;;;20.40;64.70;;;;;;4935741;29;20038;-76
2021/06/03 02:19:25;;;;;;;4.45;2.70;;;20.40;64.90;;;;;;4935900;29;20034;-76
2021/06/03 02:21:51;;;;;;;5.05;2.47;;;20.40;65.10;;;;;;4918324;29;20027;-77
2021/06/03 02:24:18;;;;;;;4.80;2.65;;;20.40;65.20;;;;;;4936034;29;20368;-77
2021/06/03 02:26:44;;;;;;;5.30;2.47;;;20.40;65.40;;;;;;4935366;29;20056;-77
2021/06/03 02:29:12;;;;;;;5.20;2.55;;;20.30;65.60;;;;;;4918710;29;20046;-76
2021/06/03 02:31:39;;;;;;;4.35;2.83;;;20.30;65.80;;;;;;4936576;29;20059;-77
2021/06/03 02:34:06;;;;;;;4.03;2.63;;;20.30;66.20;;;;;;4954471;29;20069;-76
2021/06/03 02:36:32;;;;;;;5.43;2.70;;;20.30;66.40;;;;;;4954423;29;20015;-76
2021/06/03 02:38:59;;;;;;;4.43;2.78;;;20.30;66.40;;;;;;4954784;29;20027;-77
2021/06/03 02:41:25;;;;;;;3.97;2.38;;;20.30;66.50;;;;;;4954994;29;20037;-77
2021/06/03 02:43:51;;;;;;;3.13;2.50;;;20.30;66.60;;;;;;4936868;29;20023;-76
2021/06/03 02:46:18;;;;;;;5.18;2.35;;;20.20;66.60;;;;;;4954788;29;20110;-76
2021/06/03 02:48:44;;;;;;;4.63;2.22;;;20.20;66.80;;;;;;4953732;29;20379;-76
2021/06/03 02:51:11;;;;;;;4.80;2.40;;;20.20;66.90;;;;;;4937277;29;20345;-77
2021/06/03 02:53:38;;;;;;;4.28;2.67;;;20.20;67.00;;;;;;4953761;29;20035;-76
2021/06/03 02:56:04;;;;;;;4.55;2.67;;;20.20;67.10;;;;;;4937181;29;20019;-77
2021/06/03 02:58:30;;;;;;;5.32;2.40;;;20.20;67.20;;;;;;4954466;29;20055;-76
2021/06/03 03:00:55;;;;;;;3.33;2.42;;;20.20;67.30;;;;;;4936570;29;20393;-77
2021/06/03 03:03:23;;;;;;;5.00;2.60;;;20.20;67.50;;;;;;4954324;29;20054;-77
2021/06/03 03:05:49;;;;;;;4.10;2.38;;;20.20;67.60;;;;;;4953789;29;20019;-76
2021/06/03 03:08:15;;;;;;;7.00;2.58;;;20.20;67.70;;;;;;4954233;29;20030;-77
2021/06/03 03:10:44;;;;;;;3.42;2.17;;;20.20;67.70;;;;;;4953222;29;20023;-75
2021/06/03 03:13:10;;;;;;;4.60;2.45;;;20.20;67.90;;;;;;4953818;29;20027;-76
2021/06/03 03:15:36;;;;;;;4.80;2.58;;;20.20;68.10;;;;;;4953633;29;20030;-77
2021/06/03 03:18:03;;;;;;;5.20;2.47;;;20.10;68.20;;;;;;4954097;29;20175;-76
2021/06/03 03:20:30;;;;;;;4.80;2.28;;;20.10;68.30;;;;;;4936858;29;20448;-76
2021/06/03 03:22:56;;;;;;;4.18;2.80;;;20.20;68.40;;;;;;4937813;28;20114;-76
2021/06/03 03:25:24;;;;;;;4.72;2.88;;;20.20;68.60;;;;;;4944860;29;20400;-77
2021/06/03 03:27:50;;;;;;;5.80;2.90;;;20.10;68.80;;;;;;4935513;29;20019;-77
2021/06/03 03:30:18;;;;;;;5.25;2.42;;;20.10;68.90;;;;;;4953963;29;20030;-76
2021/06/03 03:32:44;;;;;;;4.03;2.65;;;20.10;68.90;;;;;;4944833;28;20048;-76
2021/06/03 03:35:10;;;;;;;3.47;2.25;;;20.10;69.00;;;;;;4934927;29;20134;-77
2021/06/03 03:37:40;;;;;;;3.90;2.80;;;20.10;69.10;;;;;;4933912;29;20376;-77
2021/06/03 03:40:08;;;;;;;5.68;3.53;;;20.10;69.30;;;;;;4933477;29;20413;-76
2021/06/03 03:42:34;;;;;;;5.45;2.63;;;20.10;69.50;;;;;;4934801;29;20531;-73
2021/06/03 03:45:00;;;;;;;3.75;2.40;;;20.10;69.60;;;;;;4936782;29;20023;-75
2021/06/03 03:47:26;;;;;;;5.60;2.83;;;20.10;69.50;;;;;;4934777;29;20053;-74
2021/06/03 03:49:52;;;;;;;5.47;2.75;;;20.00;69.60;;;;;;4933780;29;20400;-75
2021/06/03 03:52:17;;;;;;;6.07;2.80;;;20.00;69.80;;;;;;4933003;29;20036;-74
2021/06/03 03:54:43;;;;;;;3.55;2.60;;;20.00;69.80;;;;;;4927651;29;20027;-75
2021/06/03 03:57:09;;;;;;;4.88;2.60;;;20.00;69.90;;;;;;4953892;29;20015;-73
2021/06/03 03:59:36;;;;;;;4.47;3.00;;;20.00;70.00;;;;;;4953790;29;20137;-74
2021/06/03 04:02:03;;;;;;;4.43;2.88;;;19.90;70.30;;;;;;4953560;29;20026;-74
2021/06/03 04:04:28;;;;;;;4.35;2.42;;;20.00;70.30;;;;;;4953653;29;20046;-74
2021/06/03 04:06:57;;;;;;;3.17;2.25;;;19.90;70.40;;;;;;4935515;29;20016;-74
2021/06/03 04:09:23;;;;;;;4.15;2.40;;;20.00;70.60;;;;;;4936176;29;20106;-75
2021/06/03 04:11:48;;;;;;;4.88;2.90;;;19.90;70.60;;;;;;4953030;29;20038;-74
2021/06/03 04:14:14;;;;;;;3.65;2.53;;;19.90;70.80;;;;;;4953548;29;20016;-74
2021/06/03 04:16:40;;;;;;;4.70;2.67;;;19.90;71.00;;;;;;4935665;29;20023;-74
2021/06/03 04:19:05;;;;;;;4.50;2.58;;;20.00;71.10;;;;;;4936312;29;20484;-74
2021/06/03 04:21:31;;;;;;;4.97;3.38;;;20.00;71.30;;;;;;4936316;29;20444;-75
2021/06/03 04:23:57;;;;;;;8.35;2.60;;;19.90;71.40;;;;;;4952617;29;20349;-75
2021/06/03 04:26:23;;;;;;;9.60;6.45;;;20.00;71.70;;;;;;4936173;29;20027;-74
2021/06/03 04:28:49;;;;;;;13.73;8.15;;;19.90;71.70;;;;;;4952285;29;20063;-74
2021/06/03 04:31:15;;;;;;;6.15;4.70;;;20.00;71.80;;;;;;4953399;29;20055;-77
2021/06/03 04:33:40;;;;;;;8.10;4.55;;;20.00;72.00;;;;;;4935461;29;20043;-81
2021/06/03 04:36:07;;;;;;;7.28;4.50;;;20.00;72.00;;;;;;4950523;29;20353;-76
2021/06/03 04:38:33;;;;;;;7.03;3.67;;;20.00;72.10;;;;;;4951563;28;20070;-78
2021/06/03 04:40:59;;;;;;;6.28;3.33;;;20.00;72.40;;;;;;4953750;29;20441;-78
2021/06/03 04:43:25;;;;;;;6.10;3.28;;;20.00;72.50;;;;;;4937359;29;20020;-79
2021/06/03 04:45:51;;;;;;;6.07;3.45;;;20.10;72.60;;;;;;4936658;29;20444;-77
2021/06/03 04:48:16;;;;;;;6.13;3.08;;;20.10;72.60;;;;;;4954084;29;20023;-79
2021/06/03 04:50:43;;;;;;;5.13;2.90;;;20.20;72.60;;;;;;4953599;29;20038;-78
2021/06/03 04:53:09;;;;;;;5.68;3.72;;;20.30;72.50;;;;;;4937152;29;20562;-78
2021/06/03 04:55:35;;;;;;;10.40;5.00;;;20.30;72.40;;;;;;4937128;29;20034;-80
2021/06/03 04:58:03;;;;;;;7.85;4.40;;;20.40;72.30;;;;;;4955111;29;20031;-77
2021/06/03 05:00:31;;;;;;;5.70;3.60;;;20.50;72.20;;;;;;4939031;29;20050;-77
2021/06/03 05:02:58;;;;;;;6.22;3.20;;;20.50;72.10;;;;;;4948878;29;20015;-77
2021/06/03 05:05:24;;;;;;;4.70;2.80;;;20.60;72.10;;;;;;4943831;29;20035;-77
2021/06/03 05:07:50;;;;;;;5.93;3.42;;;20.70;72.00;;;;;;4954658;29;20380;-77
2021/06/03 05:10:18;;;;;;;5.50;3.05;;;20.70;72.10;;;;;;4956409;29;20072;-77
2021/06/03 05:12:45;;;;;;;6.15;3.53;;;20.70;72.30;;;;;;4938329;29;20122;-76
2021/06/03 05:15:12;;;;;;;6.28;3.30;;;20.70;72.40;;;;;;4938278;29;20073;-77
2021/06/03 05:17:38;;;;;;;10.10;4.10;;;20.80;72.60;;;;;;4955650;29;20023;-77
2021/06/03 05:20:09;;;;;;;5.43;3.63;;;20.80;72.70;;;;;;4938536;29;20031;-78
2021/06/03 05:22:36;;;;;;;7.35;3.85;;;20.80;73.10;;;;;;4938827;29;20468;-76
2021/06/03 05:25:06;;;;;;;5.75;3.08;;;20.80;73.10;;;;;;4938187;29;20030;-76
2021/06/03 05:27:31;;;;;;;6.53;3.53;;;20.90;73.20;;;;;;4956372;29;20056;-78
2021/06/03 05:29:57;;;;;;;6.00;3.33;;;20.80;73.20;;;;;;4938305;29;20029;-76
2021/06/03 05:32:23;;;;;;;8.43;3.30;;;20.80;73.30;;;;;;4938457;29;20054;-76
2021/06/03 05:34:49;;;;;;;7.05;3.50;;;20.70;73.40;;;;;;4955183;29;20027;-78
2021/06/03 05:37:14;;;;;;;6.57;3.13;;;20.70;73.30;;;;;;4955960;29;20047;-77
2021/06/03 05:39:40;;;;;;;7.43;3.63;;;20.70;73.30;;;;;;4955841;29;20024;-77
2021/06/03 05:42:06;;;;;;;5.20;3.53;;;20.70;73.50;;;;;;4937909;29;20024;-77
2021/06/03 05:44:32;;;;;;;6.35;3.90;;;20.70;73.70;;;;;;4956061;29;20383;-77
2021/06/03 05:46:58;;;;;;;6.30;3.97;;;20.70;73.70;;;;;;4955164;29;20082;-77
2021/06/03 05:49:23;;;;;;;6.43;4.03;;;20.60;73.70;;;;;;4955316;28;20023;-76
2021/06/03 05:51:50;;;;;;;10.35;4.70;;;20.70;73.80;;;;;;4937685;29;20034;-77
2021/06/03 05:54:16;;;;;;;9.07;4.22;;;20.60;73.90;;;;;;4938240;29;20030;-77
2021/06/03 05:56:41;;;;;;;6.22;3.88;;;20.60;73.90;;;;;;4955477;29;20023;-77
2021/06/03 05:59:07;;;;;;;5.90;3.67;;;20.60;73.90;;;;;;4937534;29;20023;-76
2021/06/03 06:01:34;;;;;;;8.57;3.85;;;20.60;74.00;;;;;;4937983;29;20375;-76
2021/06/03 06:06:25;;;;;;;7.47;3.70;;;20.60;74.10;;;;;;4955266;29;20027;-76
2021/06/03 06:09:01;;;;;;;6.32;3.70;;;20.60;74.10;;;;;;4954719;29;20027;-77
2021/06/03 06:11:30;;;;;;;4.72;3.30;;;20.60;74.10;;;;;;4955351;29;20106;-77
2021/06/03 06:13:56;;;;;;;7.13;3.78;;;20.60;74.00;;;;;;4937192;29;20372;-76
2021/06/03 06:16:22;;;;;;;6.88;4.43;;;20.70;74.10;;;;;;4937824;29;20019;-76
2021/06/03 06:18:48;;;;;;;7.70;3.58;;;20.70;74.20;;;;;;4937137;29;20407;-77
2021/06/03 06:21:16;;;;;;;9.40;4.25;;;20.70;74.20;;;;;;4954749;29;20523;-77
2021/06/03 06:23:42;;;;;;;11.60;4.72;;;20.70;74.30;;;;;;4937606;29;20023;-77
2021/06/03 06:26:09;;;;;;;8.75;3.95;;;20.70;74.20;;;;;;4937129;29;20027;-76
2021/06/03 06:28:35;;;;;;;8.25;4.65;;;20.70;74.80;;;;;;4937566;29;20074;-77
2021/06/03 06:31:02;;;;;;;7.50;4.35;;;20.70;74.20;;;;;;4936948;29;20456;-77
2021/06/03 06:33:28;;;;;;;6.28;3.67;;;20.80;74.20;;;;;;4939194;29;20436;-77
2021/06/03 06:35:54;;;;;;;7.43;4.20;;;20.80;74.20;;;;;;4954641;29;20027;-77
2021/06/03 06:38:22;;;;;;;7.47;4.60;;;20.90;74.20;;;;;;4937414;29;20420;-78
2021/06/03 06:40:49;;;;;;;6.45;3.80;;;20.90;74.10;;;;;;4954335;29;20400;-77
2021/06/03 06:43:16;;;;;;;7.55;4.78;;;20.90;74.10;;;;;;4937320;29;20046;-76
2021/06/03 06:45:42;;;;;;;8.40;4.57;;;20.90;74.20;;;;;;4954259;29;20027;-77
2021/06/03 06:48:10;;;;;;;7.78;4.68;;;21.00;74.20;;;;;;4953662;29;20023;-77
2021/06/03 06:50:38;;;;;;;6.80;4.72;;;21.00;74.30;;;;;;4954494;29;20016;-77
2021/06/03 06:53:05;;;;;;;7.78;4.57;;;21.10;74.40;;;;;;4953923;29;20460;-77
2021/06/03 06:55:32;;;;;;;8.07;4.80;;;21.10;74.10;;;;;;4954783;29;20054;-77
2021/06/03 06:57:59;;;;;;;9.98;5.43;;;21.20;74.10;;;;;;4953818;29;20015;-77
2021/06/03 07:00:26;;;;;;;8.00;5.13;;;21.30;74.00;;;;;;4954387;29;20019;-77
2021/06/03 07:02:53;;;;;;;7.95;5.10;;;21.30;74.20;;;;;;4953062;28;20027;-77
2021/06/03 07:05:19;;;;;;;9.75;5.40;;;21.40;74.10;;;;;;4954771;29;20027;-77
2021/06/03 07:07:45;;;;;;;10.13;4.95;;;21.40;74.10;;;;;;4954266;29;20428;-76
2021/06/03 07:10:11;;;;;;;10.77;5.88;;;21.50;74.20;;;;;;4953533;29;20122;-77
2021/06/03 07:12:38;;;;;;;8.40;5.35;;;21.50;74.10;;;;;;4954107;29;20027;-77
2021/06/03 07:15:07;;;;;;;8.82;5.50;;;21.60;73.90;;;;;;4953622;29;20038;-76
2021/06/03 07:17:33;;;;;;;8.02;4.93;;;21.70;74.00;;;;;;4937094;29;20019;-78
2021/06/03 07:19:59;;;;;;;9.18;5.45;;;21.70;73.80;;;;;;4953574;29;20358;-78
2021/06/03 07:22:25;;;;;;;7.78;4.82;;;21.80;73.70;;;;;;4954193;29;20049;-77
2021/06/03 07:24:51;;;;;;;9.20;5.22;;;21.80;73.50;;;;;;4936834;29;20015;-78
2021/06/03 07:27:17;;;;;;;7.22;4.53;;;21.90;73.40;;;;;;4936015;29;20026;-77
2021/06/03 07:29:42;;;;;;;9.60;5.13;;;21.90;73.30;;;;;;4936620;29;20050;-77
2021/06/03 07:32:08;;;;;;;8.30;5.32;;;22.00;73.20;;;;;;4954270;28;20027;-78
2021/06/03 07:34:34;;;;;;;12.00;5.70;;;22.10;73.10;;;;;;4956100;28;20015;-76
2021/06/03 07:37:00;;;;;;;8.70;5.13;;;22.20;72.80;;;;;;4955098;28;20023;-78
2021/06/03 07:39:27;;;;;;;6.78;4.75;;;22.30;72.60;;;;;;4973136;28;20030;-77
2021/06/03 07:41:53;;;;;;;9.55;4.88;;;22.30;72.30;;;;;;4955865;28;20033;-76
2021/06/03 07:44:18;;;;;;;8.73;5.07;;;22.40;72.30;;;;;;4955713;28;20019;-77
2021/06/03 07:46:45;;;;;;;7.97;5.15;;;22.40;72.20;;;;;;4955318;28;20019;-78
2021/06/03 07:49:13;;;;;;;9.50;5.80;;;22.30;72.20;;;;;;4955036;28;20034;-76
2021/06/03 07:51:40;;;;;;;7.65;5.13;;;22.30;72.10;;;;;;4972804;28;20038;-78
2021/06/03 07:54:06;;;;;;;7.10;4.82;;;22.30;72.10;;;;;;4955621;28;20026;-77
2021/06/03 07:56:32;;;;;;;7.25;5.22;;;22.30;72.60;;;;;;4972756;28;20089;-76
2021/06/03 07:58:58;;;;;;;7.43;4.93;;;22.30;71.90;;;;;;4972413;28;20460;-78
2021/06/03 08:01:24;;;;;;;9.40;4.90;;;22.30;72.10;;;;;;4972918;28;20047;-78
2021/06/03 08:03:49;;;;;;;10.13;5.10;;;22.30;72.00;;;;;;4955551;28;20460;-78
2021/06/03 08:06:15;;;;;;;10.32;4.90;;;22.30;71.90;;;;;;4954645;28;20034;-77
2021/06/03 08:08:41;;;;;;;12.95;5.10;;;22.40;71.80;;;;;;4973158;28;20015;-78
2021/06/03 08:11:07;;;;;;;8.23;4.97;;;22.60;71.50;;;;;;4972373;28;20019;-78
2021/06/03 08:13:34;;;;;;;10.07;4.97;;;22.70;70.80;;;;;;4957655;28;20053;-78
2021/06/03 08:16:00;;;;;;;6.80;4.63;;;23.00;70.40;;;;;;4958756;28;20227;-77
2021/06/03 08:18:26;;;;;;;6.93;4.60;;;23.20;69.90;;;;;;4959427;28;20364;-78
2021/06/03 08:20:56;;;;;;;9.35;4.90;;;23.40;69.40;;;;;;4976822;28;20025;-78
2021/06/03 08:23:25;;;;;;;7.75;4.90;;;23.50;69.20;;;;;;4958934;28;20102;-78
2021/06/03 08:25:51;;;;;;;6.78;4.43;;;23.50;68.20;;;;;;4958767;28;20038;-79
2021/06/03 08:28:17;;;;;;;7.22;4.35;;;23.60;67.90;;;;;;4975965;28;20022;-78
2021/06/03 08:30:44;;;;;;;6.05;3.53;;;23.60;67.50;;;;;;4943551;28;20082;-77
2021/06/03 08:33:11;;;;;;;7.85;4.40;;;23.70;67.40;;;;;;4957931;28;20043;-78
2021/06/03 08:35:37;;;;;;;8.23;4.55;;;23.60;67.30;;;;;;4939580;29;20138;-77
2021/06/03 08:38:06;;;;;;;9.27;4.45;;;23.60;67.30;;;;;;4956398;29;20027;-78
2021/06/03 08:40:41;;;;;;;9.93;5.00;;;23.50;67.60;;;;;;4956774;29;20046;-78
2021/06/03 08:43:07;;;;;;;8.25;5.28;;;23.40;67.90;;;;;;4939200;29;20408;-78
2021/06/03 08:45:36;;;;;;;8.40;4.88;;;23.30;68.00;;;;;;4939546;29;20460;-78
2021/06/03 08:48:03;;;;;;;7.20;4.60;;;23.30;68.00;;;;;;4939209;29;20075;-78
2021/06/03 08:50:31;;;;;;;8.38;4.18;;;23.40;68.00;;;;;;4939775;29;20061;-79
2021/06/03 08:52:59;;;;;;;7.78;4.90;;;23.50;67.80;;;;;;4957278;29;20050;-79
2021/06/03 08:58:13;;;;;;;8.02;4.28;;;23.70;67.10;;;;;;4956011;29;20039;-77
2021/06/03 09:00:40;;;;;;;8.27;4.82;;;23.80;66.70;;;;;;4938875;29;20106;-78
2021/06/03 09:03:08;;;;;;;6.88;3.72;;;23.80;66.60;;;;;;4955997;29;20030;-77
2021/06/03 09:05:34;;;;;;;6.68;3.60;;;23.70;66.60;;;;;;4956394;29;20019;-78
2021/06/03 09:08:19;;;;;;;6.07;3.88;;;23.80;66.60;;;;;;4956563;29;20038;-78
2021/06/03 09:10:48;;;;;;;5.20;3.58;;;23.70;65.70;;;;;;4957800;29;20451;-78
2021/06/03 09:13:17;;;;;;;5.40;3.20;;;23.70;65.80;;;;;;4956054;29;20019;-78
2021/06/03 09:15:55;;;;;;;5.63;3.28;;;23.70;66.00;;;;;;4939549;29;20079;-78
2021/06/03 09:18:36;;;;;;;7.18;4.30;;;23.70;65.90;;;;;;4956451;29;20119;-77
2021/06/03 09:21:14;;;;;;;7.28;3.90;;;23.70;65.90;;;;;;4938795;29;20027;-79
2021/06/03 09:24:03;;;;;;;8.23;4.07;;;23.70;66.10;;;;;;4939053;29;20019;-78
2021/06/03 09:26:32;;;;;;;7.57;4.28;;;23.70;66.20;;;;;;4955734;29;20046;-78
2021/06/03 09:29:00;;;;;;;6.53;3.90;;;23.80;66.30;;;;;;4956032;29;20015;-80
2021/06/03 09:31:29;;;;;;;7.80;4.25;;;23.90;66.30;;;;;;4938056;29;20027;-78
2021/06/03 09:34:01;;;;;;;7.38;4.43;;;23.80;66.40;;;;;;4940899;29;20043;-79
2021/06/03 09:36:30;;;;;;;8.00;4.47;;;23.80;66.70;;;;;;4956111;29;20015;-79
2021/06/03 09:39:14;;;;;;;7.40;3.83;;;23.80;66.80;;;;;;4938501;29;20026;-79
2021/06/03 09:41:52;;;;;;;6.05;3.95;;;23.90;66.80;;;;;;4954467;29;20023;-79
2021/06/03 09:44:35;;;;;;;6.60;4.10;;;24.00;66.80;;;;;;4954006;29;20020;-78
2021/06/03 09:47:14;;;;;;;8.65;5.35;;;24.00;66.80;;;;;;4954495;29;20134;-77
2021/06/03 09:49:56;;;;;;;6.38;3.78;;;24.10;66.50;;;;;;4956018;28;20034;-78
2021/06/03 09:52:25;;;;;;;7.28;4.57;;;24.30;66.40;;;;;;4937968;29;20058;-79
2021/06/03 09:54:57;;;;;;;8.52;4.72;;;24.50;66.20;;;;;;4954521;29;20027;-78
2021/06/03 09:57:52;;;;;;;10.25;5.82;;;24.70;65.80;;;;;;4955041;29;20211;-78
2021/06/03 10:00:22;;;;;;;7.72;4.72;;;24.90;65.50;;;;;;4937340;29;20026;-78
2021/06/03 10:03:00;;;;;;;9.00;5.47;;;25.00;65.20;;;;;;4954212;29;20015;-78
2021/06/03 10:05:26;;;;;;;8.02;4.38;;;25.10;64.90;;;;;;4955099;29;20019;-78
2021/06/03 10:07:59;;;;;;;7.70;4.93;;;25.10;64.80;;;;;;4955120;29;20030;-79
2021/06/03 10:10:28;;;;;;;7.93;4.95;;;25.20;64.80;;;;;;4953401;29;20015;-79
2021/06/03 10:12:54;;;;;;;8.95;5.10;;;25.20;64.70;;;;;;4953993;29;20130;-78
2021/06/03 10:15:20;;;;;;;9.32;4.47;;;25.20;65.40;;;;;;4954500;29;20047;-79
2021/06/03 10:18:02;;;;;;;7.03;4.32;;;25.20;64.80;;;;;;4953875;29;20421;-78
2021/06/03 10:20:40;;;;;;;6.05;3.65;;;25.20;64.80;;;;;;4954970;29;20026;-77
2021/06/03 10:23:09;;;;;;;7.07;3.95;;;25.30;64.50;;;;;;4954793;29;20075;-79
2021/06/03 10:25:37;;;;;;;5.78;3.90;;;25.30;64.20;;;;;;4955034;29;20019;-78
2021/06/03 10:28:13;;;;;;;9.48;4.28;;;25.30;64.10;;;;;;4938320;29;20091;-78
2021/06/03 10:30:47;;;;;;;7.13;3.90;;;25.30;64.30;;;;;;4955124;28;20027;-79
2021/06/03 10:33:18;;;;;;;6.57;3.97;;;25.20;64.40;;;;;;4954289;28;20492;-79
2021/06/03 10:35:47;;;;;;;7.47;3.80;;;25.20;64.50;;;;;;4973899;28;20135;-78
2021/06/03 10:38:14;;;;;;;7.35;4.22;;;25.20;64.60;;;;;;4955263;28;20118;-78
2021/06/03 10:40:46;;;;;;;6.75;4.68;;;25.20;64.80;;;;;;4956697;28;20018;-78
2021/06/03 10:43:13;;;;;;;5.93;4.13;;;25.20;64.80;;;;;;4956119;28;20375;-77
2021/06/03 10:45:40;;;;;;;9.00;4.85;;;25.20;65.00;;;;;;4956636;28;20029;-78
2021/06/03 10:48:07;;;;;;;8.82;4.95;;;25.10;65.50;;;;;;4973931;28;20098;-78
2021/06/03 10:50:39;;;;;;;10.20;5.20;;;24.90;67.70;;;;;;4956372;28;20018;-78
2021/06/03 10:53:15;;;;;;;8.38;4.95;;;24.60;70.20;;;;;;4973954;28;20030;-79
2021/06/03 10:55:43;;;;;;;9.02;5.30;;;24.40;72.30;;;;;;4973935;28;20030;-78
2021/06/03 10:58:11;;;;;;;8.05;5.90;;;24.40;73.00;;;;;;4955833;28;20209;-79
2021/06/03 11:00:40;;;;;;;7.53;4.80;;;24.40;73.30;;;;;;4972936;28;20173;-78
2021/06/03 11:03:22;;;;;;;9.10;5.32;;;24.40;73.10;;;;;;4956459;28;20015;-78
2021/06/03 11:05:59;;;;;;;9.20;5.82;;;24.40;73.30;;;;;;4956274;28;20026;-79
2021/06/03 11:08:29;;;;;;;10.38;6.03;;;24.20;73.60;;;;;;4972926;28;20460;-79
2021/06/03 11:11:15;;;;;;;9.95;6.07;;;24.10;74.00;;;;;;4973522;28;20038;-79
2021/06/03 11:13:46;;;;;;;13.45;6.82;;;24.10;74.40;;;;;;4959466;28;20402;-77
2021/06/03 11:16:35;;;;;;;10.43;6.53;;;24.00;75.30;;;;;;4955519;28;20174;-79
2021/06/03 11:19:01;;;;;;;11.55;7.00;;;23.90;76.40;;;;;;4963362;28;20042;-78
2021/06/03 11:21:36;;;;;;;10.65;6.90;;;23.70;77.00;;;;;;4955326;28;20027;-78
2021/06/03 11:24:09;;;;;;;11.50;6.97;;;23.60;77.90;;;;;;4955908;28;20080;-77
2021/06/03 11:26:40;;;;;;;11.15;7.40;;;23.60;78.30;;;;;;4973174;28;20018;-78
2021/06/03 11:29:29;;;;;;;10.98;6.80;;;23.50;79.10;;;;;;4972989;28;20031;-78
2021/06/03 11:32:04;;;;;;;12.02;7.78;;;23.60;79.50;;;;;;4973607;28;20546;-78
2021/06/03 11:34:56;;;;;;;10.63;6.20;;;24.10;79.60;;;;;;4972395;28;20070;-78
2021/06/03 11:37:25;;;;;;;10.98;7.00;;;24.60;78.40;;;;;;4972974;28;20139;-78
2021/06/03 11:40:07;;;;;;;12.57;7.78;;;24.90;77.50;;;;;;4973337;28;20061;-78
2021/06/03 11:42:40;;;;;;;9.73;6.70;;;25.10;77.10;;;;;;4972912;28;20518;-77
2021/06/03 11:45:16;;;;;;;11.93;7.10;;;25.20;76.50;;;;;;4974605;28;20041;-78
2021/06/03 11:47:43;;;;;;;10.00;6.07;;;25.20;76.20;;;;;;4956690;28;20026;-79
2021/06/03 11:50:15;;;;;;;12.13;7.45;;;25.20;75.50;;;;;;4977252;28;20506;-79
2021/06/03 11:55:58;;;;;;;9.10;5.97;;;25.40;74.40;;;;;;4976762;28;20078;-78
2021/06/03 11:58:23;;;;;;;9.95;6.88;;;25.40;74.60;;;;;;4977281;28;20022;-77
2021/06/03 12:00:52;;;;;;;9.57;6.85;;;25.30;74.30;;;;;;4959776;28;20117;-77
2021/06/03 12:03:24;;;;;;;11.60;6.85;;;25.50;74.60;;;;;;4959035;28;20466;-76
2021/06/03 12:05:52;;;;;;;13.88;7.03;;;25.80;74.30;;;;;;4976855;28;20074;-77
2021/06/03 12:08:50;;;;;;;11.80;7.32;;;26.10;73.40;;;;;;4976278;28;20106;-76
2021/06/03 12:11:36;;;;;;;7.95;5.32;;;26.40;72.40;;;;;;4926904;28;20038;-78
2021/06/03 12:14:05;;;;;;;9.27;5.28;;;26.60;71.30;;;;;;4976969;28;20019;-76
2021/06/03 12:16:37;;;;;;;9.25;5.78;;;26.80;70.80;;;;;;4976142;28;20470;-77
2021/06/03 12:19:34;;;;;;;8.80;5.60;;;27.10;69.90;;;;;;4976718;28;20030;-77
2021/06/03 12:22:05;;;;;;;5.68;4.18;;;27.50;69.00;;;;;;4937072;28;20133;-77
2021/06/03 12:24:46;;;;;;;7.38;4.68;;;27.70;67.90;;;;;;4976032;28;20019;-76
2021/06/03 12:27:20;;;;;;;6.65;3.80;;;27.80;66.80;;;;;;4959411;28;20011;-76
2021/06/03 12:29:46;;;;;;;8.30;4.43;;;27.90;66.90;;;;;;4976798;28;20030;-77
2021/06/03 12:32:13;;;;;;;5.90;4.05;;;27.70;65.90;;;;;;4977129;28;20026;-77
2021/06/03 12:34:38;;;;;;;6.47;4.60;;;27.50;65.70;;;;;;4955613;29;20087;-76
2021/06/03 12:37:23;;;;;;;7.63;3.45;;;27.50;65.60;;;;;;4957151;29;20046;-76
2021/06/03 12:39:49;;;;;;;4.93;3.20;;;27.60;65.50;;;;;;4958060;29;20027;-76
2021/06/03 12:42:20;;;;;;;5.13;3.15;;;27.80;65.50;;;;;;4960986;29;20027;-77
2021/06/03 12:44:56;;;;;;;;;;;27.90;64.50;;;;;;4961345;29;20015;-76
2021/06/03 12:47:27;;;;;;;7.28;3.80;;;27.90;64.00;;;;;;4957432;29;20294;-76
2021/06/03 12:50:07;;;;;;;5.00;2.97;;;27.90;63.10;;;;;;4939826;29;20054;-78
2021/06/03 12:52:33;;;;;;;7.20;4.15;;;27.80;62.30;;;;;;4956251;29;20054;-77
2021/06/03 12:55:00;;;;;;;7.88;4.25;;;27.60;62.80;;;;;;4956836;29;20467;-78
2021/06/03 12:57:26;;;;;;;5.85;4.13;;;27.60;63.50;;;;;;4938673;29;20023;-76
2021/06/03 12:59:54;;;;;;;6.50;3.83;;;27.70;64.20;;;;;;4938618;29;20011;-77
2021/06/03 13:02:20;;;;;;;6.32;3.33;;;27.80;64.10;;;;;;4957545;29;20019;-77